createdAt,value
2022-11-20T00:01:55.647Z,-1.69
2022-11-20T00:04:23.932Z,-1.74
2022-11-20T00:06:52.364Z,-1.77
2022-11-20T00:09:21.835Z,-1.75
2022-11-20T00:11:49.815Z,-1.73
2022-11-20T00:14:17.825Z,-1.73
2022-11-20T00:16:46.326Z,-1.73
2022-11-20T00:19:14.647Z,-1.77
2022-11-20T00:21:43.113Z,-1.82
2022-11-20T00:24:11.871Z,-1.83
2022-11-20T00:26:40.276Z,-1.87
2022-11-20T00:29:10.937Z,-1.89
2022-11-20T00:31:40.672Z,-1.86
2022-11-20T00:34:11.316Z,-1.87
2022-11-20T00:36:41.200Z,-1.89
2022-11-20T00:39:11.131Z,-1.88
2022-11-20T00:41:41.042Z,-1.89
2022-11-20T00:44:10.818Z,-1.96
2022-11-20T00:46:40.544Z,-1.96
2022-11-20T00:49:10.411Z,-1.91
2022-11-20T00:51:40.322Z,-1.91
2022-11-20T00:54:10.089Z,-1.97
2022-11-20T00:56:40.020Z,-1.97
2022-11-20T00:59:11.171Z,-1.94
2022-11-20T01:01:41.016Z,-1.95
2022-11-20T01:04:10.726Z,-1.94
2022-11-20T01:06:41.176Z,-1.92
2022-11-20T01:09:15.146Z,-1.92
2022-11-20T01:11:45.568Z,-1.98
2022-11-20T01:14:18.042Z,-2.05
2022-11-20T01:16:51.676Z,-2.06
2022-11-20T01:19:24.797Z,-2.11
2022-11-20T01:21:55.243Z,-2.11
2022-11-20T01:24:24.455Z,-2.16
2022-11-20T01:26:53.168Z,-2.22
2022-11-20T01:29:24.989Z,-2.27
2022-11-20T01:31:55.023Z,-2.27
2022-11-20T01:34:25.866Z,-2.26
2022-11-20T01:36:55.646Z,-2.24
2022-11-20T01:39:27.539Z,-2.33
2022-11-20T01:42:16.185Z,-2.34
2022-11-20T01:44:59.817Z,-2.36
2022-11-20T01:47:46.016Z,-2.35
2022-11-20T01:50:34.781Z,-2.33
2022-11-20T01:53:10.784Z,-2.37
2022-11-20T01:55:48.241Z,-2.48
2022-11-20T01:58:22.570Z,-2.45
2022-11-20T02:00:53.789Z,-2.39
2022-11-20T02:03:24.933Z,-2.39
2022-11-20T02:06:23.830Z,-2.34
2022-11-20T02:08:55.072Z,-2.37
2022-11-20T02:11:24.853Z,-2.38
2022-11-20T02:13:54.389Z,-2.38
2022-11-20T02:16:30.040Z,-2.41
2022-11-20T02:19:07.699Z,-2.38
2022-11-20T02:22:02.979Z,-2.35
2022-11-20T02:24:30.455Z,-2.40
2022-11-20T02:27:08.680Z,-2.48
2022-11-20T02:29:54.521Z,-2.49
2022-11-20T02:32:34.768Z,-2.50
2022-11-20T02:35:30.134Z,-2.53
2022-11-20T02:38:03.766Z,-2.55
2022-11-20T02:40:33.662Z,-2.53
2022-11-20T02:43:03.899Z,-2.54
2022-11-20T02:45:33.711Z,-2.58
2022-11-20T02:48:03.821Z,-2.60
2022-11-20T02:50:33.810Z,-2.64
2022-11-20T02:53:00.899Z,-2.68
2022-11-20T02:55:27.752Z,-2.69
2022-11-20T02:57:57.552Z,-2.69
2022-11-20T03:00:25.898Z,-2.75
2022-11-20T03:02:54.410Z,-2.79
2022-11-20T03:05:22.930Z,-2.83
2022-11-20T03:07:51.325Z,-2.82
2022-11-20T03:10:19.863Z,-2.82
2022-11-20T03:12:48.266Z,-2.85
2022-11-20T03:15:16.653Z,-2.86
2022-11-20T03:17:44.999Z,-2.82
2022-11-20T03:20:13.759Z,-2.82
2022-11-20T03:22:41.756Z,-2.84
2022-11-20T03:25:10.246Z,-2.83
2022-11-20T03:27:38.606Z,-2.84
2022-11-20T03:30:07.938Z,-2.87
2022-11-20T03:32:34.834Z,-2.88
2022-11-20T03:35:03.964Z,-2.84
2022-11-20T03:37:32.942Z,-2.81
2022-11-20T03:40:00.201Z,-2.84
2022-11-20T03:42:46.895Z,-2.86
2022-11-20T03:45:19.169Z,-2.82
2022-11-20T03:47:48.445Z,-2.79
2022-11-20T03:50:16.713Z,-2.80
2022-11-20T03:52:45.034Z,-2.81
2022-11-20T03:55:13.608Z,-2.80
2022-11-20T03:57:41.883Z,-2.79
2022-11-20T04:00:11.471Z,-2.76
2022-11-20T04:02:38.671Z,-2.72
2022-11-20T04:05:07.566Z,-2.68
2022-11-20T04:07:36.171Z,-2.66
2022-11-20T04:10:04.551Z,-2.67
2022-11-20T04:12:35.372Z,-2.67
2022-11-20T04:15:04.631Z,-2.65
2022-11-20T04:17:32.251Z,-2.62
2022-11-20T04:20:00.672Z,-2.59
2022-11-20T04:22:29.067Z,-2.56
2022-11-20T04:24:57.324Z,-2.53
2022-11-20T04:27:25.716Z,-2.53
2022-11-20T04:29:54.071Z,-2.51
2022-11-20T04:32:22.671Z,-2.50
2022-11-20T04:34:51.033Z,-2.48
2022-11-20T04:37:20.151Z,-2.47
2022-11-20T04:39:47.903Z,-2.43
2022-11-20T04:42:31.531Z,-2.43
2022-11-20T04:45:01.632Z,-2.38
2022-11-20T04:47:31.393Z,-2.35
2022-11-20T04:50:01.326Z,-2.34
2022-11-20T04:52:31.107Z,-2.35
2022-11-20T04:55:01.015Z,-2.33
2022-11-20T04:57:30.837Z,-2.31
2022-11-20T05:00:00.705Z,-2.32
2022-11-20T05:02:32.985Z,-2.31
2022-11-20T05:05:02.693Z,-2.30
2022-11-20T05:07:32.572Z,-2.32
2022-11-20T05:10:02.370Z,-2.30
2022-11-20T05:12:32.470Z,-2.27
2022-11-20T05:15:02.380Z,-2.26
2022-11-20T05:17:32.489Z,-2.27
2022-11-20T05:20:00.866Z,-2.27
2022-11-20T05:22:29.152Z,-2.24
2022-11-20T05:24:57.620Z,-2.24
2022-11-20T05:27:26.029Z,-2.24
2022-11-20T05:29:54.518Z,-2.25
2022-11-20T05:32:26.258Z,-2.24
2022-11-20T05:34:54.450Z,-2.25
2022-11-20T05:37:23.037Z,-2.23
2022-11-20T05:39:51.400Z,-2.22
2022-11-20T05:42:31.690Z,-2.17
2022-11-20T05:45:04.658Z,-2.13
2022-11-20T05:47:36.417Z,-2.10
2022-11-20T05:50:06.505Z,-2.11
2022-11-20T05:52:36.217Z,-2.10
2022-11-20T05:55:07.176Z,-2.12
2022-11-20T05:57:36.982Z,-2.09
2022-11-20T06:00:08.235Z,-2.08
2022-11-20T06:02:38.067Z,-2.08
2022-11-20T06:05:08.515Z,-2.06
2022-11-20T06:07:38.277Z,-2.06
2022-11-20T06:10:08.792Z,-2.06
2022-11-20T06:12:38.727Z,-2.03
2022-11-20T06:15:12.631Z,-2.05
2022-11-20T06:17:42.009Z,-2.03
2022-11-20T06:20:12.127Z,-2.02
2022-11-20T06:22:42.046Z,-2.03
2022-11-20T06:25:12.253Z,-2.06
2022-11-20T06:27:42.003Z,-2.06
2022-11-20T06:30:13.180Z,-2.06
2022-11-20T06:32:42.943Z,-2.09
2022-11-20T06:35:12.880Z,-2.11
2022-11-20T06:37:41.123Z,-2.12
2022-11-20T06:40:10.899Z,-2.14
2022-11-20T06:42:37.949Z,-2.17
2022-11-20T06:45:07.273Z,-2.12
2022-11-20T06:47:35.024Z,-2.14
2022-11-20T06:50:03.506Z,-2.16
2022-11-20T06:52:31.712Z,-2.15
2022-11-20T06:55:00.118Z,-2.13
2022-11-20T06:57:28.390Z,-2.17
2022-11-20T06:59:56.831Z,-2.15
2022-11-20T07:02:25.955Z,-2.17
2022-11-20T07:04:53.856Z,-2.22
2022-11-20T07:07:22.221Z,-2.19
2022-11-20T07:09:50.662Z,-2.17
2022-11-20T07:12:19.434Z,-2.18
2022-11-20T07:14:47.426Z,-2.22
2022-11-20T07:17:15.819Z,-2.25
2022-11-20T07:19:44.293Z,-2.25
2022-11-20T07:22:12.754Z,-2.21
2022-11-20T07:24:45.880Z,-2.25
2022-11-20T07:27:15.916Z,-2.25
2022-11-20T07:29:45.743Z,-2.27
2022-11-20T07:32:15.453Z,-2.32
2022-11-20T07:34:45.135Z,-2.35
2022-11-20T07:37:16.231Z,-2.38
2022-11-20T07:39:45.938Z,-2.32
2022-11-20T07:42:15.895Z,-2.31
2022-11-20T07:44:45.781Z,-2.30
2022-11-20T07:47:15.506Z,-2.36
2022-11-20T07:49:44.055Z,-2.27
2022-11-20T07:52:12.393Z,-2.24
2022-11-20T07:54:40.769Z,-2.17
2022-11-20T07:57:09.205Z,-2.14
2022-11-20T07:59:37.940Z,-2.18
2022-11-20T08:02:06.536Z,-2.27
2022-11-20T08:04:34.575Z,-2.24
2022-11-20T08:07:03.324Z,-2.28
2022-11-20T08:09:31.490Z,-2.19
2022-11-20T08:12:18.768Z,-2.20
2022-11-20T08:14:48.547Z,-2.06
2022-11-20T08:17:18.361Z,-2.11
2022-11-20T08:19:48.276Z,-1.99
2022-11-20T08:22:18.732Z,-2.06
2022-11-20T08:24:49.394Z,-2.13
2022-11-20T08:27:17.034Z,-2.03
2022-11-20T08:29:45.341Z,-2.08
2022-11-20T08:32:13.890Z,-1.96
2022-11-20T08:34:42.421Z,-1.99
2022-11-20T08:37:10.857Z,-1.96
2022-11-20T08:39:39.264Z,-1.88
2022-11-20T08:42:12.289Z,-1.93
2022-11-20T08:44:45.255Z,-2.10
2022-11-20T08:47:15.071Z,-1.91
2022-11-20T08:49:44.780Z,-1.87
2022-11-20T08:52:14.648Z,-1.83
2022-11-20T08:54:44.406Z,-1.77
2022-11-20T08:57:14.146Z,-1.86
2022-11-20T09:00:04.994Z,-2.00
2022-11-20T09:02:33.892Z,-2.04
2022-11-20T09:05:04.099Z,-2.03
2022-11-20T09:07:32.482Z,-2.05
2022-11-20T09:10:22.576Z,-2.03
2022-11-20T09:12:52.733Z,-2.08
2022-11-20T09:15:23.568Z,-2.12
2022-11-20T09:17:55.667Z,-1.90
2022-11-20T09:20:27.179Z,-1.86
2022-11-20T09:22:58.845Z,-1.95
2022-11-20T09:25:28.853Z,-1.97
2022-11-20T09:27:59.885Z,-1.88
2022-11-20T09:30:29.654Z,-1.79
2022-11-20T09:32:59.343Z,-1.85
2022-11-20T09:35:29.321Z,-1.80
2022-11-20T09:37:59.191Z,-1.74
2022-11-20T09:40:30.594Z,-1.69
2022-11-20T09:43:50.433Z,-1.68
2022-11-20T09:47:01.381Z,-1.79
2022-11-20T09:49:56.310Z,-1.64
2022-11-20T09:53:13.651Z,-1.51
2022-11-20T09:55:47.432Z,-1.71
2022-11-20T09:58:33.352Z,-1.69
2022-11-20T10:01:15.322Z,-1.57
2022-11-20T10:04:14.837Z,-1.49
2022-11-20T10:07:31.921Z,-1.48
2022-11-20T10:10:02.533Z,-1.48
2022-11-20T10:12:57.286Z,-1.44
2022-11-20T10:15:44.527Z,-1.54
2022-11-20T10:19:05.534Z,-1.50
2022-11-20T10:22:06.875Z,-1.58
2022-11-20T10:25:18.802Z,-1.39
2022-11-20T10:28:10.965Z,-1.45
2022-11-20T10:30:47.277Z,-1.45
2022-11-20T10:33:23.873Z,-1.37
2022-11-20T10:36:20.000Z,-1.24
2022-11-20T10:39:08.459Z,-1.14
2022-11-20T10:41:51.431Z,-1.03
2022-11-20T10:44:53.736Z,-1.00
2022-11-20T10:47:28.840Z,-1.02
2022-11-20T10:50:03.385Z,-1.02
2022-11-20T10:53:20.145Z,-0.98
2022-11-20T10:56:06.468Z,-1.00
2022-11-20T10:59:25.683Z,-0.95
2022-11-20T11:01:57.052Z,-0.91
2022-11-20T11:04:29.627Z,-0.79
2022-11-20T11:07:36.181Z,-0.90
2022-11-20T11:10:48.268Z,-0.95
2022-11-20T11:13:24.056Z,-0.78
2022-11-20T11:15:55.590Z,-0.76
2022-11-20T11:18:33.771Z,-0.87
2022-11-20T11:21:07.396Z,-0.95
2022-11-20T11:23:43.738Z,-0.79
2022-11-20T11:26:24.191Z,-0.69
2022-11-20T11:29:04.188Z,-0.65
2022-11-20T11:31:36.291Z,-0.82
2022-11-20T11:34:19.208Z,-0.43
2022-11-20T11:36:59.104Z,-0.22
2022-11-20T11:39:30.259Z,-0.23
2022-11-20T11:42:02.051Z,-0.34
2022-11-20T11:44:54.319Z,-0.24
2022-11-20T11:47:49.409Z,-0.18
2022-11-20T11:50:29.190Z,-0.11
2022-11-20T11:53:19.106Z,-0.17
2022-11-20T11:55:59.330Z,0.11
2022-11-20T11:58:50.362Z,0.17
2022-11-20T12:01:39.326Z,0.24
2022-11-20T12:04:19.684Z,0.25
2022-11-20T12:07:46.191Z,0.18
2022-11-20T12:10:33.513Z,0.35
2022-11-20T12:13:12.136Z,0.40
2022-11-20T12:15:48.323Z,0.18
2022-11-20T12:18:23.660Z,0.28
2022-11-20T12:21:13.810Z,0.31
2022-11-20T12:24:02.523Z,0.31
2022-11-20T12:26:46.367Z,0.29
2022-11-20T12:29:24.873Z,0.29
2022-11-20T12:33:10.523Z,0.38
2022-11-20T12:36:02.076Z,0.20
2022-11-20T12:38:59.183Z,0.10
2022-11-20T12:41:53.928Z,0.09
2022-11-20T12:45:10.628Z,0.05
2022-11-20T12:48:00.205Z,-0.02
2022-11-20T12:51:08.116Z,-0.07
2022-11-20T12:53:59.476Z,-0.16
2022-11-20T12:57:04.111Z,-0.22
2022-11-20T13:00:14.948Z,-0.25
2022-11-20T13:03:20.213Z,-0.21
2022-11-20T13:06:18.432Z,-0.31
2022-11-20T13:08:55.071Z,-0.23
2022-11-20T13:11:58.349Z,-0.24
2022-11-20T13:14:37.154Z,-0.25
2022-11-20T13:17:31.648Z,-0.18
2022-11-20T13:20:03.157Z,-0.15
2022-11-20T13:22:53.187Z,-0.12
2022-11-20T13:25:30.154Z,-0.11
2022-11-20T13:28:06.301Z,-0.15
2022-11-20T13:30:49.734Z,-0.22
2022-11-20T13:33:39.130Z,-0.23
2022-11-20T13:36:27.015Z,-0.30
2022-11-20T13:39:01.790Z,-0.33
2022-11-20T13:41:36.438Z,-0.33
2022-11-20T13:44:14.800Z,-0.40
2022-11-20T13:46:47.929Z,-0.45
2022-11-20T13:49:26.219Z,-0.53
2022-11-20T13:52:26.767Z,-0.53
2022-11-20T13:55:32.282Z,-0.56
2022-11-20T13:58:23.973Z,-0.53
2022-11-20T14:01:27.316Z,-0.55
2022-11-20T14:04:06.235Z,-0.58
2022-11-20T14:06:47.815Z,-0.56
2022-11-20T14:09:35.174Z,-0.54
2022-11-20T14:12:20.058Z,-0.55
2022-11-20T14:14:53.938Z,-0.49
2022-11-20T14:17:29.535Z,-0.48
2022-11-20T14:20:08.481Z,-0.53
2022-11-20T14:22:37.696Z,-0.54
2022-11-20T14:25:06.622Z,-0.54
2022-11-20T14:27:40.439Z,-0.57
2022-11-20T14:30:26.624Z,-0.59
2022-11-20T14:33:02.433Z,-0.61
2022-11-20T14:35:42.149Z,-0.61
2022-11-20T14:38:16.950Z,-0.61
2022-11-20T14:40:46.835Z,-0.62
2022-11-20T14:43:29.973Z,-0.66
2022-11-20T14:46:09.963Z,-0.66
2022-11-20T14:48:55.001Z,-0.68
2022-11-20T14:51:42.121Z,-0.73
2022-11-20T14:54:23.217Z,-0.74
2022-11-20T14:57:04.877Z,-0.74
2022-11-20T14:59:35.925Z,-0.77
2022-11-20T15:02:11.470Z,-0.81
2022-11-20T15:04:58.696Z,-0.77
2022-11-20T15:07:41.093Z,-0.74
2022-11-20T15:10:13.081Z,-0.69
2022-11-20T15:12:51.619Z,-0.63
2022-11-20T15:15:32.485Z,-0.65
2022-11-20T15:18:04.348Z,-0.66
2022-11-20T15:20:37.043Z,-0.66
2022-11-20T15:23:21.154Z,-0.61
2022-11-20T15:25:51.329Z,-0.59
2022-11-20T15:28:34.170Z,-0.62
2022-11-20T15:31:04.156Z,-0.62
2022-11-20T15:33:33.757Z,-0.66
2022-11-20T15:36:03.957Z,-0.65
2022-11-20T15:38:31.696Z,-0.63
2022-11-20T15:40:59.855Z,-0.63
2022-11-20T15:43:28.239Z,-0.65
2022-11-20T15:46:12.544Z,-0.66
2022-11-20T15:48:48.231Z,-0.68
2022-11-20T15:51:37.817Z,-0.67
2022-11-20T15:54:19.286Z,-0.66
2022-11-20T15:56:53.448Z,-0.67
2022-11-20T15:59:21.575Z,-0.66
2022-11-20T16:01:48.890Z,-0.65
2022-11-20T16:04:17.738Z,-0.68
2022-11-20T16:06:45.110Z,-0.66
2022-11-20T16:09:13.796Z,-0.67
2022-11-20T16:11:42.315Z,-0.64
2022-11-20T16:14:30.523Z,-0.65
2022-11-20T16:16:59.680Z,-0.65
2022-11-20T16:19:29.391Z,-0.68
2022-11-20T16:22:03.095Z,-0.75
2022-11-20T16:24:32.589Z,-0.84
2022-11-20T16:27:02.500Z,-0.88
2022-11-20T16:29:32.213Z,-0.88
2022-11-20T16:32:01.964Z,-0.91
2022-11-20T16:34:30.648Z,-0.89
2022-11-20T16:36:58.988Z,-0.85
2022-11-20T16:39:29.929Z,-0.83
2022-11-20T16:41:59.039Z,-0.81
2022-11-20T16:44:27.501Z,-0.83
2022-11-20T16:46:55.987Z,-0.87
2022-11-20T16:49:24.840Z,-0.86
2022-11-20T16:51:52.757Z,-0.91
2022-11-20T16:54:21.603Z,-0.93
2022-11-20T16:56:51.779Z,-0.94
2022-11-20T16:59:21.569Z,-0.96
2022-11-20T17:01:51.508Z,-1.03
2022-11-20T17:04:21.736Z,-1.10
2022-11-20T17:06:51.746Z,-1.16
2022-11-20T17:09:21.491Z,-1.24
2022-11-20T17:11:51.380Z,-1.34
2022-11-20T17:14:22.083Z,-1.43
2022-11-20T17:16:52.276Z,-1.48
2022-11-20T17:19:22.081Z,-1.42
2022-11-20T17:21:51.824Z,-1.46
2022-11-20T17:24:22.094Z,-1.49
2022-11-20T17:26:53.396Z,-1.51
2022-11-20T17:29:24.321Z,-1.55
2022-11-20T17:31:55.363Z,-1.62
2022-11-20T17:34:26.314Z,-1.63
2022-11-20T17:36:56.384Z,-1.61
2022-11-20T17:39:26.239Z,-1.60
2022-11-20T17:42:15.510Z,-1.59
2022-11-20T17:44:42.770Z,-1.57
2022-11-20T17:47:10.801Z,-1.56
2022-11-20T17:49:39.021Z,-1.55
2022-11-20T17:52:07.483Z,-1.53
2022-11-20T17:54:36.175Z,-1.53
2022-11-20T17:57:25.227Z,-1.48
2022-11-20T17:59:56.790Z,-1.47
2022-11-20T18:02:25.457Z,-1.51
2022-11-20T18:04:55.308Z,-1.51
2022-11-20T18:07:25.774Z,-1.53
2022-11-20T18:09:55.209Z,-1.55
2022-11-20T18:12:25.082Z,-1.58
2022-11-20T18:14:55.140Z,-1.58
2022-11-20T18:17:25.163Z,-1.57
2022-11-20T18:20:21.896Z,-1.53
2022-11-20T18:22:45.605Z,-1.50
2022-11-20T18:25:15.508Z,-1.59
2022-11-20T18:27:44.388Z,-1.67
2022-11-20T18:30:13.546Z,-1.76
2022-11-20T18:32:40.732Z,-1.84
2022-11-20T18:35:10.120Z,-1.89
2022-11-20T18:37:37.626Z,-1.93
2022-11-20T18:40:07.090Z,-1.99
2022-11-20T18:42:55.810Z,-2.07
2022-11-20T18:45:25.650Z,-2.14
2022-11-20T18:47:55.786Z,-2.15
2022-11-20T18:50:25.568Z,-2.16
2022-11-20T18:52:55.453Z,-2.19
2022-11-20T18:55:25.901Z,-2.18
2022-11-20T18:57:55.666Z,-2.19
2022-11-20T19:00:26.100Z,-2.21
2022-11-20T19:02:55.893Z,-2.29
2022-11-20T19:05:27.484Z,-2.31
2022-11-20T19:07:57.206Z,-2.27
2022-11-20T19:10:29.465Z,-2.24
2022-11-20T19:12:59.245Z,-2.24
2022-11-20T19:15:29.084Z,-2.23
2022-11-20T19:17:57.716Z,-2.27
2022-11-20T19:20:27.424Z,-2.32
2022-11-20T19:22:57.295Z,-2.26
2022-11-20T19:25:27.113Z,-2.27
2022-11-20T19:27:57.047Z,-2.27
2022-11-20T19:30:26.812Z,-2.27
2022-11-20T19:32:58.040Z,-2.26
2022-11-20T19:35:27.769Z,-2.22
2022-11-20T19:38:00.197Z,-2.16
2022-11-20T19:40:34.021Z,-2.18
2022-11-20T19:43:05.101Z,-2.19
2022-11-20T19:45:34.852Z,-2.15
2022-11-20T19:48:07.980Z,-2.14
2022-11-20T19:50:38.376Z,-2.26
2022-11-20T19:53:08.780Z,-2.33
2022-11-20T19:55:38.553Z,-2.37
2022-11-20T19:58:08.515Z,-2.41
2022-11-20T20:00:38.307Z,-2.43
2022-11-20T20:03:08.002Z,-2.44
2022-11-20T20:05:37.916Z,-2.49
2022-11-20T20:08:07.672Z,-2.50
2022-11-20T20:10:38.246Z,-2.50
2022-11-20T20:13:07.984Z,-2.52
2022-11-20T20:15:41.159Z,-2.65
2022-11-20T20:18:10.855Z,-2.73
2022-11-20T20:20:40.717Z,-2.67
2022-11-20T20:23:11.722Z,-2.76
2022-11-20T20:25:41.432Z,-2.83
2022-11-20T20:28:11.359Z,-2.76
2022-11-20T20:30:40.382Z,-2.72
2022-11-20T20:33:08.860Z,-2.80
2022-11-20T20:35:41.972Z,-2.75
2022-11-20T20:38:11.677Z,-2.67
2022-11-20T20:40:52.370Z,-2.76
2022-11-20T20:43:22.109Z,-3.02
2022-11-20T20:45:53.068Z,-3.13
2022-11-20T20:48:23.321Z,-3.15
2022-11-20T20:51:04.551Z,-3.19
2022-11-20T20:53:34.519Z,-3.23
2022-11-20T20:56:06.647Z,-3.14
2022-11-20T20:58:36.738Z,-3.13
2022-11-20T21:01:11.950Z,-3.21
2022-11-20T21:03:42.573Z,-3.11
2022-11-20T21:06:12.493Z,-2.94
2022-11-20T21:08:44.450Z,-2.95
2022-11-20T21:11:18.447Z,-2.94
2022-11-20T21:13:49.622Z,-2.94
2022-11-20T21:16:22.499Z,-2.95
2022-11-20T21:18:52.242Z,-2.95
2022-11-20T21:21:40.557Z,-2.89
2022-11-20T21:24:10.352Z,-2.94
2022-11-20T21:26:40.069Z,-3.02
2022-11-20T21:29:09.762Z,-3.02
2022-11-20T21:31:39.578Z,-3.09
2022-11-20T21:34:13.184Z,-3.04
2022-11-20T21:36:43.776Z,-3.19
2022-11-20T21:39:15.714Z,-3.21
2022-11-20T21:41:45.482Z,-3.15
2022-11-20T21:44:30.655Z,-3.11
2022-11-20T21:47:00.789Z,-3.31
2022-11-20T21:49:30.613Z,-3.27
2022-11-20T21:51:59.064Z,-3.28
2022-11-20T21:54:31.358Z,-3.30
2022-11-20T21:56:58.917Z,-3.29
2022-11-20T21:59:27.617Z,-3.30
2022-11-20T22:01:56.020Z,-3.30
2022-11-20T22:04:27.031Z,-3.38
2022-11-20T22:06:55.911Z,-3.46
2022-11-20T22:09:24.811Z,-3.49
2022-11-20T22:11:52.697Z,-3.51
2022-11-20T22:14:21.508Z,-3.62
2022-11-20T22:16:52.225Z,-3.66
2022-11-20T22:19:23.270Z,-3.71
2022-11-20T22:21:52.512Z,-3.68
2022-11-20T22:24:22.901Z,-3.73
2022-11-20T22:26:51.642Z,-3.81
2022-11-20T22:29:21.876Z,-3.80
2022-11-20T22:31:53.137Z,-3.87
2022-11-20T22:34:20.394Z,-3.92
2022-11-20T22:36:48.495Z,-3.96
2022-11-20T22:39:17.667Z,-3.98
2022-11-20T22:41:45.290Z,-3.96
2022-11-20T22:44:19.705Z,-3.95
2022-11-20T22:46:49.413Z,-3.94
2022-11-20T22:49:19.201Z,-3.85
2022-11-20T22:51:49.031Z,-3.89
2022-11-20T22:54:18.771Z,-3.87
2022-11-20T22:56:47.141Z,-3.85
2022-11-20T22:59:18.445Z,-3.82
2022-11-20T23:01:47.103Z,-3.79
2022-11-20T23:04:18.369Z,-3.77
2022-11-20T23:06:48.106Z,-3.72
2022-11-20T23:09:18.397Z,-3.69
2022-11-20T23:11:48.137Z,-3.67
2022-11-20T23:14:17.906Z,-3.64
2022-11-20T23:16:48.359Z,-3.60
2022-11-20T23:19:19.118Z,-3.59
2022-11-20T23:21:49.174Z,-3.59
2022-11-20T23:24:18.972Z,-3.56
2022-11-20T23:26:48.739Z,-3.55
2022-11-20T23:29:18.728Z,-3.54
2022-11-20T23:31:48.555Z,-3.58
2022-11-20T23:34:18.316Z,-3.56
2022-11-20T23:36:48.120Z,-3.60
2022-11-20T23:39:17.877Z,-3.55
2022-11-20T23:41:47.622Z,-3.52
2022-11-20T23:44:17.362Z,-3.53
2022-11-20T23:46:47.049Z,-3.48
2022-11-20T23:49:16.721Z,-3.45
2022-11-20T23:51:46.621Z,-3.42
2022-11-20T23:54:15.048Z,-3.41
2022-11-20T23:56:42.048Z,-3.40
2022-11-20T23:59:09.236Z,-3.39
